Terminal Aerodrome Forecast
Issued by NWS

Home | Current Version | Previous Version | Text Only | Print | Product List | Glossary On
Versions: 1 2 3 4 5 6 7 8 9 10 11 12 13 14 15 16 17 18 19 20 21 22 23 24 25 26
451
FTUS41 KBUF 202018 AAA
TAFIAG
TAF AMD
KIAG 202018Z 2020/2118 16007KT P6SM OVC029
     FM202100 07007KT P6SM BKN090
     FM202300 36005KT P6SM BKN250
     FM210000 VRB03KT P6SM SCT250
     FM211500 29009KT P6SM SCT040=

USA.gov is the U.S. government's official web portal to all federal, state and local government web resources and services.